Torrington, CT

7:55 PM EDT on October 22, 2014 (GMT -0400)
Waterbury-Oxford | Change Station
CLOSE
Current Station
Airport
Location: Oxford,
Elevation: 725 ft
Nearby Weather Stations

Elev 725 ft 41.47 °N, 73.14 °W | Updated 1 hour ago

Rain
Rain
48 °F
Feels Like 48 °F
N
23
Wind Variable Wind from NE
Gusts 34 mph

Today
High -- | Low -- °F
--% Chance of Precip.
Yesterday
High -- | Low -- °F
Precip. -- in
7:12 AM 6:00 PM
Waning Crescent, 1% visible
Pressure 29.82 in
Visibility 3.0 miles
Clouds Mostly Cloudy 600 ft
Overcast 1600 ft
Dew Point 43 °F
Humidity 82%
Rainfall 0.00 in
Snow Depth Not available.
UV 0 out of 12
Pollen .10 out of 12
Ozone Good
Flu Activity Sporadic
METAR KOXC 222250Z 04020G30KT 3SM RA BR BKN006 OVC016 09/06 A2982

More Conditions Fewer Conditions

Pressure 29.82 in
Visibility 3.0 miles
Clouds Mostly Cloudy 600 ft
Overcast 1600 ft
Dew Point 43 °F
Humidity 82%
Rainfall 0.00 in
Snow Depth Not available.
UV 0 out of 12
Pollen .10 out of 12
Ozone Good
Flu Activity Sporadic
METAR KOXC 222250Z 04020G30KT 3SM RA BR BKN006 OVC016 09/06 A2982

More Conditions Fewer Conditions

10-Day Weather Forecast

Almanac

Astronomy

Oct. 22, 2014 Rise Set
Actual Time 7:12 AM EDT 6:00 PM EDT
Civil Twilight 6:44 AM EDT 6:28 PM EDT
Nautical Twilight 6:11 AM EDT 7:01 PM EDT
Astronomical Twilight 5:39 AM EDT 7:33 PM EDT
Moon 5:50 AM EDT 5:26 PM EDT
Length of Visible Light 11h 44m
Length of Day
10h 47m
Tomorrow will be 2m 37s shorter.
Waning Crescent, 1% of the Moon is Illuminated
Today
Waning Crescent
Oct 23
New
Oct 30
First Quarter
Nov 6
Full
Nov 14
Last Quarter

Today's Extremes

State Highs State Lows

Community

WunderPhotos

Upload Photos

1,764,080 photos uploaded!

WunderBlogs® & News

Nearby

Air Quality

  Air Quality AQ Index Pollutant
Yesterday Good
PM10
Current Good
OZONE
Wednesday Good
PM2.5
Thursday Good
PM2.5

Snow Depth

Station Depth Elevation
No new snow has been reported.

Earthquake Activity

City Distance Mag. Time & Date
No recent earthquake activity has been reported nearby.
Minimum magnitude displayed is 2.5.

Coastal Water Temperatures

Place Temperature
No Stations Reporting

Nearby Weather Stations